ENHV/HVG METAR and TAF weather

Enter ICAO airport designator
Station Type Date Time Source
ENHV METAR 2022/05/23 15:20 UTC NOAA

ENHV 231520Z 14010KT CAVOK 10/03 Q1013


Station Type Date Time Source
ENHV Decoded METAR 2022/05/23 15:20 UTC NOAA

Honningsvag / Valan, Norway (ENHV) 71-01N 025-59E 14M
May 23, 2022 - 11:20 AM EDT / 2022.05.23 1520 UTC
Wind: from the SE (140 degrees) at 12 MPH (10 KT):0
Visibility: greater than 7 mile(s):0
Temperature: 50 F (10 C)
Dew Point: 37 F (3 C)
Relative Humidity: 61%
Pressure (altimeter): 29.91 in. Hg (1013 hPa)
ob: ENHV 231520Z 14010KT CAVOK 10/03 Q1013
cycle: 15

Station Type Date Time Source
ENHV TAF UTC NOAA

Error!

Example: see airport list